createdAt,value
2022-10-23T00:01:00.444Z,45.01
2022-10-23T00:03:27.017Z,44.93
2022-10-23T00:05:53.592Z,44.97
2022-10-23T00:08:20.146Z,45.01
2022-10-23T00:10:46.798Z,44.96
2022-10-23T00:13:13.394Z,45.10
2022-10-23T00:15:39.995Z,45.12
2022-10-23T00:18:06.654Z,45.08
2022-10-23T00:20:33.226Z,45.14
2022-10-23T00:22:59.958Z,45.03
2022-10-23T00:25:26.530Z,45.10
2022-10-23T00:27:53.115Z,45.10
2022-10-23T00:30:19.811Z,45.04
2022-10-23T00:32:46.362Z,45.03
2022-10-23T00:35:12.933Z,45.00
2022-10-23T00:37:39.622Z,45.03
2022-10-23T00:40:06.948Z,45.07
2022-10-23T00:42:33.612Z,45.04
2022-10-23T00:45:16.373Z,45.05
2022-10-23T00:47:42.959Z,45.11
2022-10-23T00:50:09.647Z,45.13
2022-10-23T00:52:37.571Z,45.05
2022-10-23T00:55:04.466Z,45.12
2022-10-23T00:57:31.003Z,45.35
2022-10-23T00:59:57.681Z,45.17
2022-10-23T01:02:24.343Z,45.23
2022-10-23T01:04:51.030Z,45.37
2022-10-23T01:07:27.537Z,45.21
2022-10-23T01:10:16.505Z,45.32
2022-10-23T01:12:46.109Z,45.31
2022-10-23T01:15:21.983Z,45.30
2022-10-23T01:17:50.091Z,45.30
2022-10-23T01:20:50.628Z,45.32
2022-10-23T01:23:29.381Z,45.26
2022-10-23T01:26:35.306Z,45.26
2022-10-23T01:29:05.331Z,45.28
2022-10-23T01:31:42.533Z,45.29
2022-10-23T01:34:21.212Z,45.33
2022-10-23T01:36:48.938Z,45.30
2022-10-23T01:39:23.495Z,45.23
2022-10-23T01:41:58.679Z,45.31
2022-10-23T01:44:44.828Z,45.37
2022-10-23T01:47:11.652Z,45.23
2022-10-23T01:49:39.239Z,45.28
2022-10-23T01:52:08.663Z,45.30
2022-10-23T01:54:36.495Z,45.31
2022-10-23T01:57:03.496Z,45.34
2022-10-23T01:59:32.819Z,45.24
2022-10-23T02:01:59.481Z,45.48
2022-10-23T02:04:36.463Z,45.40
2022-10-23T02:07:05.276Z,45.45
2022-10-23T02:09:32.219Z,45.40
2022-10-23T02:12:02.491Z,45.32
2022-10-23T02:14:41.081Z,45.34
2022-10-23T02:17:16.539Z,45.43
2022-10-23T02:19:45.584Z,45.43
2022-10-23T02:22:38.915Z,45.40
2022-10-23T02:25:17.734Z,45.39
2022-10-23T02:27:49.133Z,45.44
2022-10-23T02:30:16.817Z,45.46
2022-10-23T02:32:46.584Z,45.43
2022-10-23T02:35:13.432Z,45.46
2022-10-23T02:37:40.326Z,45.41
2022-10-23T02:40:07.697Z,45.45
2022-10-23T02:42:46.275Z,45.35
2022-10-23T02:45:24.609Z,45.44
2022-10-23T02:48:13.012Z,45.52
2022-10-23T02:50:42.411Z,45.39
2022-10-23T02:53:37.824Z,45.41
2022-10-23T02:56:09.596Z,45.47
2022-10-23T02:58:56.578Z,45.43
2022-10-23T03:01:26.741Z,45.46
2022-10-23T03:04:03.284Z,45.40
2022-10-23T03:06:29.835Z,45.47
2022-10-23T03:09:00.819Z,45.44
2022-10-23T03:11:27.445Z,45.45
2022-10-23T03:13:54.034Z,45.52
2022-10-23T03:16:20.588Z,45.56
2022-10-23T03:18:47.335Z,45.46
2022-10-23T03:21:13.984Z,45.49
2022-10-23T03:23:40.569Z,45.53
2022-10-23T03:26:07.261Z,45.55
2022-10-23T03:28:35.509Z,45.45
2022-10-23T03:31:02.595Z,45.59
2022-10-23T03:33:30.119Z,45.55
2022-10-23T03:35:56.716Z,45.56
2022-10-23T03:38:23.341Z,45.59
2022-10-23T03:40:49.896Z,45.55
2022-10-23T03:43:16.543Z,45.56
2022-10-23T03:45:43.100Z,45.56
2022-10-23T03:48:09.664Z,45.55
2022-10-23T03:50:36.393Z,45.63
2022-10-23T03:53:02.965Z,45.56
2022-10-23T03:55:29.702Z,45.48
2022-10-23T03:57:56.313Z,45.65
2022-10-23T04:00:22.873Z,45.38
2022-10-23T04:02:49.564Z,45.65
2022-10-23T04:05:16.224Z,45.44
2022-10-23T04:07:42.775Z,45.46
2022-10-23T04:10:09.720Z,45.49
2022-10-23T04:12:36.303Z,45.31
2022-10-23T04:15:02.951Z,45.18
2022-10-23T04:17:29.539Z,45.05
2022-10-23T04:19:56.392Z,44.75
2022-10-23T04:22:25.961Z,44.41
2022-10-23T04:24:54.162Z,44.14
2022-10-23T04:27:20.811Z,43.90
2022-10-23T04:29:47.378Z,43.69
2022-10-23T04:32:14.103Z,43.50
2022-10-23T04:34:40.632Z,43.32
2022-10-23T04:37:07.226Z,43.22
2022-10-23T04:39:33.791Z,43.13
2022-10-23T04:42:00.374Z,43.05
2022-10-23T04:44:26.926Z,43.00
2022-10-23T04:46:53.526Z,42.88
2022-10-23T04:49:20.084Z,42.83
2022-10-23T04:51:46.653Z,42.76
2022-10-23T04:54:13.254Z,42.67
2022-10-23T04:56:39.820Z,42.70
2022-10-23T04:59:06.520Z,42.61
2022-10-23T05:01:33.179Z,42.55
2022-10-23T05:03:59.835Z,42.53
2022-10-23T05:06:26.479Z,42.51
2022-10-23T05:08:53.076Z,42.46
2022-10-23T05:11:19.823Z,42.46
2022-10-23T05:13:46.392Z,42.42
2022-10-23T05:16:13.954Z,42.42
2022-10-23T05:18:46.851Z,42.44
2022-10-23T05:21:15.799Z,42.41
2022-10-23T05:23:42.923Z,42.40
2022-10-23T05:26:09.513Z,42.38
2022-10-23T05:28:36.216Z,42.39
2022-10-23T05:31:06.483Z,42.40
2022-10-23T05:33:33.088Z,42.39
2022-10-23T05:35:59.635Z,42.37
2022-10-23T05:38:27.019Z,42.38
2022-10-23T05:40:53.718Z,42.38
2022-10-23T05:43:20.262Z,42.38
2022-10-23T05:45:46.840Z,42.37
2022-10-23T05:48:30.129Z,42.38
2022-10-23T05:51:07.985Z,42.41
2022-10-23T05:53:40.091Z,42.39
2022-10-23T05:56:09.078Z,42.41
2022-10-23T05:58:35.661Z,42.40
2022-10-23T06:01:09.293Z,42.40
2022-10-23T06:03:36.331Z,42.36
2022-10-23T06:06:02.909Z,42.37
2022-10-23T06:08:30.353Z,42.38
2022-10-23T06:10:57.010Z,42.38
2022-10-23T06:13:23.589Z,42.39
2022-10-23T06:15:50.187Z,42.44
2022-10-23T06:18:16.730Z,42.41
2022-10-23T06:20:43.342Z,42.41
2022-10-23T06:23:09.891Z,42.43
2022-10-23T06:25:36.625Z,42.43
2022-10-23T06:28:03.179Z,42.43
2022-10-23T06:30:29.880Z,42.45
2022-10-23T06:32:56.599Z,42.48
2022-10-23T06:35:23.171Z,42.44
2022-10-23T06:37:49.712Z,42.48
2022-10-23T06:40:16.307Z,42.50
2022-10-23T06:42:43.057Z,42.50
2022-10-23T06:45:09.928Z,42.57
2022-10-23T06:47:36.488Z,42.51
2022-10-23T06:50:03.172Z,42.57
2022-10-23T06:52:47.887Z,42.54
2022-10-23T06:55:14.870Z,42.58
2022-10-23T06:57:41.912Z,42.59
2022-10-23T07:00:09.396Z,42.62
2022-10-23T07:02:36.015Z,42.63
2022-10-23T07:05:02.561Z,42.66
2022-10-23T07:07:31.999Z,42.76
2022-10-23T07:09:58.690Z,42.70
2022-10-23T07:12:25.302Z,42.74
2022-10-23T07:14:51.983Z,42.74
2022-10-23T07:17:18.601Z,42.79
2022-10-23T07:19:46.585Z,42.91
2022-10-23T07:22:15.756Z,42.93
2022-10-23T07:24:42.720Z,42.93
2022-10-23T07:27:09.687Z,42.97
2022-10-23T07:29:36.441Z,42.94
2022-10-23T07:32:04.507Z,42.95
2022-10-23T07:34:32.079Z,43.08
2022-10-23T07:36:58.689Z,43.15
2022-10-23T07:39:25.330Z,43.15
2022-10-23T07:41:51.888Z,43.15
2022-10-23T07:44:18.496Z,43.13
2022-10-23T07:46:45.074Z,43.09
2022-10-23T07:49:11.669Z,42.94
2022-10-23T07:51:38.251Z,42.78
2022-10-23T07:54:04.916Z,42.67
2022-10-23T07:56:31.580Z,42.52
2022-10-23T07:58:58.148Z,42.28
2022-10-23T08:01:32.446Z,42.26
2022-10-23T08:03:59.495Z,42.16
2022-10-23T08:06:26.044Z,42.15
2022-10-23T08:08:52.718Z,42.07
2022-10-23T08:11:24.940Z,42.09
2022-10-23T08:13:52.470Z,42.19
2022-10-23T08:16:19.081Z,42.13
2022-10-23T08:18:45.645Z,42.18
2022-10-23T08:21:12.323Z,42.23
2022-10-23T08:23:38.895Z,42.28
2022-10-23T08:26:06.064Z,42.29
2022-10-23T08:28:32.796Z,42.47
2022-10-23T08:30:59.502Z,42.48
2022-10-23T08:33:26.210Z,42.54
2022-10-23T08:35:52.782Z,42.50
2022-10-23T08:38:19.386Z,42.56
2022-10-23T08:40:47.119Z,42.65
2022-10-23T08:43:24.308Z,42.70
2022-10-23T08:45:51.722Z,42.74
2022-10-23T08:48:35.562Z,42.89
2022-10-23T08:51:06.461Z,42.85
2022-10-23T08:53:50.742Z,42.97
2022-10-23T08:56:27.008Z,42.86
2022-10-23T08:59:28.086Z,42.98
2022-10-23T09:02:16.096Z,43.35
2022-10-23T09:04:43.117Z,43.33
2022-10-23T09:07:29.644Z,43.24
2022-10-23T09:10:08.092Z,43.11
2022-10-23T09:12:34.660Z,43.39
2022-10-23T09:15:20.348Z,43.06
2022-10-23T09:17:47.820Z,43.33
2022-10-23T09:20:21.113Z,43.50
2022-10-23T09:22:54.307Z,43.62
2022-10-23T09:25:29.502Z,43.60
2022-10-23T09:28:00.095Z,43.51
2022-10-23T09:30:37.880Z,43.73
2022-10-23T09:33:14.320Z,43.88
2022-10-23T09:36:00.179Z,44.01
2022-10-23T09:38:36.537Z,43.83
2022-10-23T09:41:08.136Z,43.93
2022-10-23T09:43:34.777Z,44.06
2022-10-23T09:46:02.955Z,43.96
2022-10-23T09:48:29.547Z,44.03
2022-10-23T09:51:03.512Z,44.12
2022-10-23T09:53:35.040Z,44.28
2022-10-23T09:56:26.505Z,44.21
2022-10-23T09:59:02.956Z,44.20
2022-10-23T10:01:32.770Z,44.31
2022-10-23T10:03:59.578Z,44.47
2022-10-23T10:06:31.039Z,44.57
2022-10-23T10:08:59.233Z,44.67
2022-10-23T10:11:52.963Z,44.63
2022-10-23T10:14:44.549Z,44.59
2022-10-23T10:17:31.310Z,44.62
2022-10-23T10:20:06.950Z,44.67
2022-10-23T10:22:35.525Z,44.82
2022-10-23T10:25:24.149Z,44.78
2022-10-23T10:28:15.705Z,44.99
2022-10-23T10:31:09.740Z,45.01
2022-10-23T10:33:58.171Z,45.08
2022-10-23T10:36:34.200Z,45.23
2022-10-23T10:39:01.435Z,45.15
2022-10-23T10:42:06.244Z,45.25
2022-10-23T10:44:32.696Z,45.34
2022-10-23T10:47:21.170Z,45.34
2022-10-23T10:49:53.895Z,45.38
2022-10-23T10:52:51.778Z,45.50
2022-10-23T10:55:32.475Z,45.41
2022-10-23T10:58:16.380Z,45.44
2022-10-23T11:00:43.241Z,45.69
2022-10-23T11:03:41.702Z,45.71
2022-10-23T11:06:16.725Z,45.64
2022-10-23T11:08:56.383Z,45.79
2022-10-23T11:11:26.940Z,45.95
2022-10-23T11:13:54.014Z,45.90
2022-10-23T11:16:40.765Z,46.05
2022-10-23T11:19:18.111Z,46.13
2022-10-23T11:22:10.890Z,46.09
2022-10-23T11:24:49.517Z,46.21
2022-10-23T11:27:37.604Z,46.29
2022-10-23T11:30:13.016Z,46.40
2022-10-23T11:32:58.283Z,46.39
2022-10-23T11:35:30.827Z,46.34
2022-10-23T11:38:17.682Z,46.50
2022-10-23T11:43:50.001Z,46.50
2022-10-23T11:46:25.600Z,46.64
2022-10-23T11:48:52.655Z,46.67
2022-10-23T11:51:26.161Z,46.81
2022-10-23T11:53:52.716Z,46.80
2022-10-23T11:56:21.851Z,46.93
2022-10-23T11:58:58.754Z,46.91
2022-10-23T12:01:28.308Z,46.90
2022-10-23T12:04:14.685Z,46.87
2022-10-23T12:06:50.285Z,46.99
2022-10-23T12:09:31.678Z,47.10
2022-10-23T12:12:18.046Z,47.12
2022-10-23T12:14:51.070Z,47.10
2022-10-23T12:17:23.437Z,47.18
2022-10-23T12:19:54.591Z,47.20
2022-10-23T12:22:22.372Z,47.34
2022-10-23T12:25:03.029Z,47.29
2022-10-23T12:27:38.115Z,47.32
2022-10-23T12:30:23.663Z,47.39
2022-10-23T12:33:02.215Z,47.49
2022-10-23T12:35:47.639Z,47.47
2022-10-23T12:38:16.416Z,47.46
2022-10-23T12:40:46.775Z,47.55
2022-10-23T12:43:42.134Z,47.62
2022-10-23T12:46:17.640Z,47.63
2022-10-23T12:48:50.860Z,47.71
2022-10-23T12:51:26.176Z,47.80
2022-10-23T12:53:52.849Z,47.80
2022-10-23T12:56:19.572Z,47.78
2022-10-23T12:58:49.647Z,47.83
2022-10-23T13:01:33.420Z,47.85
2022-10-23T13:04:29.935Z,47.82
2022-10-23T13:07:00.946Z,47.97
2022-10-23T13:09:33.389Z,47.96
2022-10-23T13:12:00.750Z,47.94
2022-10-23T13:14:44.512Z,47.96
2022-10-23T13:17:11.716Z,47.92
2022-10-23T13:19:38.511Z,47.94
2022-10-23T13:22:14.543Z,47.98
2022-10-23T13:24:44.235Z,47.98
2022-10-23T13:27:33.202Z,48.01
2022-10-23T13:30:00.056Z,48.00
2022-10-23T13:32:29.099Z,48.09
2022-10-23T13:35:04.207Z,48.06
2022-10-23T13:37:37.080Z,48.07
2022-10-23T13:40:17.722Z,48.04
2022-10-23T13:42:44.458Z,48.10
2022-10-23T13:45:15.130Z,48.07
2022-10-23T13:47:42.106Z,48.10
2022-10-23T13:50:11.192Z,48.06
2022-10-23T13:52:37.932Z,48.12
2022-10-23T13:55:13.697Z,48.11
2022-10-23T13:57:40.532Z,48.18
2022-10-23T14:00:08.003Z,48.21
2022-10-23T14:02:34.636Z,48.19
2022-10-23T14:05:01.276Z,48.24
2022-10-23T14:07:27.823Z,48.26
2022-10-23T14:09:54.362Z,48.21
2022-10-23T14:12:20.940Z,48.22
2022-10-23T14:14:51.756Z,48.25
2022-10-23T14:17:19.121Z,48.30
2022-10-23T14:19:45.854Z,48.30
2022-10-23T14:22:12.452Z,48.29
2022-10-23T14:24:39.113Z,48.34
2022-10-23T14:27:05.973Z,48.33
2022-10-23T14:29:32.653Z,48.38
2022-10-23T14:31:59.290Z,48.45
2022-10-23T14:34:25.984Z,48.42
2022-10-23T14:37:07.279Z,48.40
2022-10-23T14:39:34.610Z,48.43
2022-10-23T14:42:01.180Z,48.43
2022-10-23T14:44:27.956Z,48.46
2022-10-23T14:46:54.614Z,48.48
2022-10-23T14:49:21.255Z,48.52
2022-10-23T14:51:47.821Z,48.55
2022-10-23T14:54:15.740Z,48.56
2022-10-23T14:56:42.368Z,48.52
2022-10-23T14:59:10.704Z,48.56
2022-10-23T15:01:45.131Z,48.63
2022-10-23T15:04:14.863Z,48.61
2022-10-23T15:06:41.999Z,48.61
2022-10-23T15:09:08.623Z,48.63
2022-10-23T15:11:35.221Z,48.69
2022-10-23T15:14:02.001Z,48.70
2022-10-23T15:16:28.707Z,48.70
2022-10-23T15:18:55.466Z,48.74
2022-10-23T15:21:23.092Z,48.67
2022-10-23T15:23:49.719Z,48.77
2022-10-23T15:26:22.070Z,48.74
2022-10-23T15:28:54.685Z,48.74
2022-10-23T15:31:45.681Z,48.77
2022-10-23T15:34:14.788Z,48.80
2022-10-23T15:36:42.593Z,48.80
2022-10-23T15:39:09.836Z,48.82
2022-10-23T15:41:37.293Z,48.87
2022-10-23T15:44:04.202Z,48.89
2022-10-23T15:46:30.822Z,49.00
2022-10-23T15:48:57.437Z,48.87
2022-10-23T15:51:25.322Z,48.95
2022-10-23T15:53:59.603Z,48.89
2022-10-23T15:56:26.282Z,49.01
2022-10-23T15:58:52.841Z,48.93
2022-10-23T16:01:19.593Z,48.94
2022-10-23T16:03:46.807Z,48.94
2022-10-23T16:06:14.187Z,49.01
2022-10-23T16:08:40.886Z,48.97
2022-10-23T16:11:16.741Z,48.96
2022-10-23T16:13:43.722Z,49.06
2022-10-23T16:16:12.853Z,49.12
2022-10-23T16:18:39.472Z,49.02
2022-10-23T16:21:06.597Z,49.05
2022-10-23T16:23:33.564Z,49.07
2022-10-23T16:26:06.242Z,49.07
2022-10-23T16:28:32.979Z,49.16
2022-10-23T16:30:59.758Z,49.09
2022-10-23T16:33:29.483Z,49.05
2022-10-23T16:36:01.191Z,49.06
2022-10-23T16:38:27.733Z,49.04
2022-10-23T16:40:54.303Z,49.00
2022-10-23T16:43:21.024Z,49.13
2022-10-23T16:45:47.656Z,49.03
2022-10-23T16:48:14.241Z,49.06
2022-10-23T16:50:41.260Z,49.09
2022-10-23T16:53:07.938Z,49.13
2022-10-23T16:55:34.506Z,49.09
2022-10-23T16:58:01.099Z,49.15
2022-10-23T17:00:34.815Z,49.05
2022-10-23T17:03:03.147Z,49.09
2022-10-23T17:05:33.454Z,49.11
2022-10-23T17:08:00.013Z,49.10
2022-10-23T17:10:26.580Z,49.20
2022-10-23T17:12:53.196Z,49.21
2022-10-23T17:15:20.920Z,49.25
2022-10-23T17:17:47.475Z,49.24
2022-10-23T17:20:14.047Z,49.23
2022-10-23T17:22:40.638Z,49.22
2022-10-23T17:25:08.031Z,49.26
2022-10-23T17:27:34.595Z,49.27
2022-10-23T17:30:01.130Z,49.27
2022-10-23T17:32:28.214Z,49.35
2022-10-23T17:34:54.813Z,49.46
2022-10-23T17:37:21.368Z,49.41
2022-10-23T17:39:47.968Z,49.41
2022-10-23T17:42:14.556Z,49.41
2022-10-23T17:44:41.177Z,49.41
2022-10-23T17:47:07.745Z,49.40
2022-10-23T17:49:34.320Z,49.41
2022-10-23T17:52:01.852Z,49.41
2022-10-23T17:54:28.531Z,49.41
2022-10-23T17:56:55.223Z,49.45
2022-10-23T17:59:22.030Z,49.45
2022-10-23T18:01:48.991Z,49.43
2022-10-23T18:04:16.562Z,49.50
2022-10-23T18:06:45.312Z,49.51
2022-10-23T18:09:12.031Z,49.52
2022-10-23T18:11:45.361Z,49.57
2022-10-23T18:14:15.054Z,49.57
2022-10-23T18:16:41.830Z,49.49
2022-10-23T18:19:08.814Z,49.60
2022-10-23T18:21:35.934Z,49.58
2022-10-23T18:24:02.543Z,49.56
2022-10-23T18:26:30.183Z,49.58
2022-10-23T18:28:58.224Z,49.50
2022-10-23T18:31:25.862Z,49.53
2022-10-23T18:33:59.009Z,49.56
2022-10-23T18:36:27.152Z,49.58
2022-10-23T18:41:28.098Z,49.64
2022-10-23T18:43:54.716Z,49.60
2022-10-23T18:46:21.798Z,49.71
2022-10-23T18:48:48.468Z,49.63
2022-10-23T18:51:16.244Z,49.69
2022-10-23T18:53:43.335Z,49.64
2022-10-23T18:56:09.919Z,49.71
2022-10-23T18:58:36.503Z,49.80
2022-10-23T19:01:06.364Z,49.83
2022-10-23T19:03:33.472Z,49.76
2022-10-23T19:06:00.056Z,49.78
2022-10-23T19:08:26.639Z,49.77
2022-10-23T19:10:53.207Z,49.78
2022-10-23T19:13:20.879Z,49.93
2022-10-23T19:15:47.477Z,49.93
2022-10-23T19:18:14.019Z,49.90
2022-10-23T19:20:41.507Z,49.88
2022-10-23T19:23:09.904Z,49.86
2022-10-23T19:25:37.291Z,49.95
2022-10-23T19:28:04.107Z,49.89
2022-10-23T19:30:30.666Z,49.87
2022-10-23T19:32:57.283Z,49.94
2022-10-23T19:35:23.922Z,49.92
2022-10-23T19:37:50.548Z,49.94
2022-10-23T19:40:17.117Z,50.01
2022-10-23T19:42:44.250Z,49.96
2022-10-23T19:45:12.909Z,49.98
2022-10-23T19:47:39.864Z,50.02
2022-10-23T19:50:06.922Z,50.06
2022-10-23T19:52:34.603Z,49.95
2022-10-23T19:55:03.121Z,49.95
2022-10-23T19:57:35.619Z,50.00
2022-10-23T20:00:02.414Z,49.92
2022-10-23T20:02:29.220Z,49.97
2022-10-23T20:04:56.181Z,50.05
2022-10-23T20:07:22.808Z,50.04
2022-10-23T20:09:49.490Z,50.03
2022-10-23T20:12:16.047Z,50.00
2022-10-23T20:14:42.664Z,50.10
2022-10-23T20:17:09.249Z,50.06
2022-10-23T20:19:35.808Z,50.03
2022-10-23T20:22:02.552Z,50.02
2022-10-23T20:24:29.191Z,50.07
2022-10-23T20:26:56.017Z,50.05
2022-10-23T20:29:25.288Z,50.11
2022-10-23T20:31:51.933Z,50.11
2022-10-23T20:34:19.171Z,50.07
2022-10-23T20:36:47.390Z,50.10
2022-10-23T20:39:24.537Z,50.04
2022-10-23T20:41:51.395Z,50.07
2022-10-23T20:44:18.197Z,50.08
2022-10-23T20:46:44.890Z,50.00
2022-10-23T20:49:12.235Z,50.04
2022-10-23T20:51:38.788Z,50.02
2022-10-23T20:54:08.366Z,50.06
2022-10-23T20:56:36.535Z,50.01
2022-10-23T20:59:11.105Z,50.10
2022-10-23T21:01:42.843Z,50.11
2022-10-23T21:04:11.478Z,50.08
2022-10-23T21:06:57.459Z,50.09
2022-10-23T21:09:24.893Z,50.07
2022-10-23T21:11:51.450Z,50.07
2022-10-23T21:14:18.015Z,50.08
2022-10-23T21:16:46.468Z,50.07
2022-10-23T21:19:14.299Z,50.10
2022-10-23T21:21:40.849Z,50.10
2022-10-23T21:24:09.071Z,50.21
2022-10-23T21:26:35.716Z,50.13
2022-10-23T21:29:17.561Z,50.20
2022-10-23T21:31:45.515Z,50.14
2022-10-23T21:34:12.228Z,50.21
2022-10-23T21:36:53.924Z,50.26
2022-10-23T21:39:25.706Z,50.23
2022-10-23T21:41:52.272Z,50.30
2022-10-23T21:44:18.853Z,50.29
2022-10-23T21:46:45.747Z,50.23
2022-10-23T21:49:12.624Z,50.23
2022-10-23T21:51:39.419Z,50.28
2022-10-23T21:54:07.148Z,50.29
2022-10-23T21:56:50.419Z,50.24
2022-10-23T21:59:18.614Z,50.25
2022-10-23T22:01:45.972Z,50.29
2022-10-23T22:04:14.280Z,50.26
2022-10-23T22:06:42.315Z,50.21
2022-10-23T22:09:08.977Z,50.30
2022-10-23T22:11:35.631Z,50.27
2022-10-23T22:14:02.196Z,50.30
2022-10-23T22:16:28.764Z,50.31
2022-10-23T22:18:55.298Z,50.31
2022-10-23T22:21:23.571Z,50.31
2022-10-23T22:23:50.424Z,50.30
2022-10-23T22:26:36.092Z,50.24
2022-10-23T22:29:07.865Z,50.33
2022-10-23T22:31:34.754Z,50.35
2022-10-23T22:34:13.059Z,50.31
2022-10-23T22:36:48.462Z,50.39
2022-10-23T22:39:17.560Z,50.35
2022-10-23T22:41:44.224Z,50.35
2022-10-23T22:44:11.268Z,50.40
2022-10-23T22:46:37.852Z,50.28
2022-10-23T22:49:08.466Z,50.39
2022-10-23T22:51:35.118Z,50.39
2022-10-23T22:54:04.449Z,50.36
2022-10-23T22:56:31.788Z,50.42
2022-10-23T22:58:58.404Z,50.31
2022-10-23T23:01:33.361Z,50.34
2022-10-23T23:04:08.778Z,50.44
2022-10-23T23:06:46.773Z,50.44
2022-10-23T23:09:17.008Z,50.36
2022-10-23T23:11:51.927Z,50.51
2022-10-23T23:14:22.973Z,50.44
2022-10-23T23:16:53.334Z,50.44
2022-10-23T23:19:19.927Z,50.47
2022-10-23T23:21:46.494Z,50.48
2022-10-23T23:24:13.064Z,50.37
2022-10-23T23:26:39.770Z,50.46
2022-10-23T23:29:06.370Z,50.45
2022-10-23T23:31:35.046Z,50.42
2022-10-23T23:34:01.604Z,50.48
2022-10-23T23:36:28.387Z,50.46
2022-10-23T23:38:55.623Z,50.45
2022-10-23T23:41:22.398Z,50.48
2022-10-23T23:43:49.254Z,50.56
2022-10-23T23:46:16.123Z,50.56
2022-10-23T23:48:47.392Z,50.52
2022-10-23T23:51:18.002Z,50.46
2022-10-23T23:53:44.652Z,50.44
2022-10-23T23:56:11.231Z,50.59
2022-10-23T23:58:37.856Z,50.44
